sensor_id;sensor_type;location;lat;lon;timestamp;pressure;altitude;pressure_sealevel;temperature;humidity
20696;BME280;10507;52.754;13.040;2023-03-13T00:00:52;100106.06;;;6.09;100.00
20696;BME280;10507;52.754;13.040;2023-03-13T00:03:20;100105.22;;;6.08;100.00
20696;BME280;10507;52.754;13.040;2023-03-13T00:05:48;100096.56;;;6.03;100.00
20696;BME280;10507;52.754;13.040;2023-03-13T00:08:16;100113.22;;;6.07;100.00
20696;BME280;10507;52.754;13.040;2023-03-13T00:10:44;100112.13;;;6.12;100.00
20696;BME280;10507;52.754;13.040;2023-03-13T00:13:13;100099.81;;;6.10;100.00
20696;BME280;10507;52.754;13.040;2023-03-13T00:15:41;100099.78;;;6.11;100.00
20696;BME280;10507;52.754;13.040;2023-03-13T00:18:09;100106.81;;;6.12;100.00
20696;BME280;10507;52.754;13.040;2023-03-13T00:20:37;100109.31;;;6.15;100.00
20696;BME280;10507;52.754;13.040;2023-03-13T00:23:05;100117.22;;;6.17;100.00
20696;BME280;10507;52.754;13.040;2023-03-13T00:25:32;100117.13;;;6.18;100.00
20696;BME280;10507;52.754;13.040;2023-03-13T00:28:00;100109.19;;;6.18;100.00
20696;BME280;10507;52.754;13.040;2023-03-13T00:30:29;100110.13;;;6.17;100.00
20696;BME280;10507;52.754;13.040;2023-03-13T00:32:57;100110.13;;;6.17;100.00
20696;BME280;10507;52.754;13.040;2023-03-13T00:35:25;100122.41;;;6.20;100.00
20696;BME280;10507;52.754;13.040;2023-03-13T00:37:53;100124.28;;;6.16;100.00
20696;BME280;10507;52.754;13.040;2023-03-13T00:40:21;100125.91;;;6.20;100.00
20696;BME280;10507;52.754;13.040;2023-03-13T00:42:48;100136.25;;;6.27;100.00
20696;BME280;10507;52.754;13.040;2023-03-13T00:45:16;100129.25;;;6.26;100.00
20696;BME280;10507;52.754;13.040;2023-03-13T00:47:45;100133.56;;;6.28;100.00
20696;BME280;10507;52.754;13.040;2023-03-13T00:50:15;100127.38;;;6.28;100.00
20696;BME280;10507;52.754;13.040;2023-03-13T00:52:43;100115.84;;;6.29;100.00
20696;BME280;10507;52.754;13.040;2023-03-13T00:55:11;100106.06;;;6.31;100.00
20696;BME280;10507;52.754;13.040;2023-03-13T00:57:39;100106.78;;;6.34;100.00
20696;BME280;10507;52.754;13.040;2023-03-13T01:00:07;100105.91;;;6.34;100.00
20696;BME280;10507;52.754;13.040;2023-03-13T01:02:40;100092.59;;;6.35;100.00
20696;BME280;10507;52.754;13.040;2023-03-13T01:05:10;100084.59;;;6.37;100.00
20696;BME280;10507;52.754;13.040;2023-03-13T01:07:40;100088.03;;;6.39;100.00
20696;BME280;10507;52.754;13.040;2023-03-13T01:10:09;100077.56;;;6.36;100.00
20696;BME280;10507;52.754;13.040;2023-03-13T01:12:37;100088.72;;;6.44;100.00
20696;BME280;10507;52.754;13.040;2023-03-13T01:15:05;100071.00;;;6.44;100.00
20696;BME280;10507;52.754;13.040;2023-03-13T01:17:33;100070.94;;;6.46;100.00
20696;BME280;10507;52.754;13.040;2023-03-13T01:20:01;100069.00;;;6.50;100.00
20696;BME280;10507;52.754;13.040;2023-03-13T01:22:32;100063.66;;;6.51;100.00
20696;BME280;10507;52.754;13.040;2023-03-13T01:25:00;100070.56;;;6.55;100.00
20696;BME280;10507;52.754;13.040;2023-03-13T01:27:28;100043.22;;;6.53;100.00
20696;BME280;10507;52.754;13.040;2023-03-13T01:29:55;100051.03;;;6.56;100.00
20696;BME280;10507;52.754;13.040;2023-03-13T01:32:23;100035.13;;;6.56;100.00
20696;BME280;10507;52.754;13.040;2023-03-13T01:34:51;100024.47;;;6.58;100.00
20696;BME280;10507;52.754;13.040;2023-03-13T01:37:19;100013.84;;;6.58;100.00
20696;BME280;10507;52.754;13.040;2023-03-13T01:39:48;100004.97;;;6.59;100.00
20696;BME280;10507;52.754;13.040;2023-03-13T01:42:16;100004.69;;;6.65;100.00
20696;BME280;10507;52.754;13.040;2023-03-13T01:44:49;99988.63;;;6.68;100.00
20696;BME280;10507;52.754;13.040;2023-03-13T01:47:17;99973.47;;;6.72;100.00
20696;BME280;10507;52.754;13.040;2023-03-13T01:49:45;99951.22;;;6.74;100.00
20696;BME280;10507;52.754;13.040;2023-03-13T01:52:16;99938.81;;;6.75;100.00
20696;BME280;10507;52.754;13.040;2023-03-13T01:54:50;99934.47;;;6.74;100.00
20696;BME280;10507;52.754;13.040;2023-03-13T01:57:24;99930.78;;;6.76;100.00
20696;BME280;10507;52.754;13.040;2023-03-13T01:59:57;99918.47;;;6.75;100.00
20696;BME280;10507;52.754;13.040;2023-03-13T02:02:27;99930.75;;;6.78;100.00
20696;BME280;10507;52.754;13.040;2023-03-13T02:04:59;99910.44;;;6.77;100.00
20696;BME280;10507;52.754;13.040;2023-03-13T02:07:31;99901.63;;;6.76;100.00
20696;BME280;10507;52.754;13.040;2023-03-13T02:10:01;99911.22;;;6.79;100.00
20696;BME280;10507;52.754;13.040;2023-03-13T02:12:32;99876.09;;;6.74;100.00
20696;BME280;10507;52.754;13.040;2023-03-13T02:15:04;99884.84;;;6.76;100.00
20696;BME280;10507;52.754;13.040;2023-03-13T02:17:33;99867.28;;;6.73;100.00
20696;BME280;10507;52.754;13.040;2023-03-13T02:20:02;99888.41;;;6.75;100.00
20696;BME280;10507;52.754;13.040;2023-03-13T02:22:33;99875.09;;;6.76;100.00
20696;BME280;10507;52.754;13.040;2023-03-13T02:25:10;99869.09;;;6.73;100.00
20696;BME280;10507;52.754;13.040;2023-03-13T02:27:42;99877.03;;;6.73;100.00
20696;BME280;10507;52.754;13.040;2023-03-13T02:30:13;99873.44;;;6.74;100.00
20696;BME280;10507;52.754;13.040;2023-03-13T02:32:42;99884.06;;;6.74;100.00
20696;BME280;10507;52.754;13.040;2023-03-13T02:35:12;99877.97;;;6.72;100.00
20696;BME280;10507;52.754;13.040;2023-03-13T02:37:41;99883.09;;;6.75;100.00
20696;BME280;10507;52.754;13.040;2023-03-13T02:40:13;99879.69;;;6.73;100.00
20696;BME280;10507;52.754;13.040;2023-03-13T02:42:44;99874.28;;;6.74;100.00
20696;BME280;10507;52.754;13.040;2023-03-13T02:45:16;99864.75;;;6.70;100.00
20696;BME280;10507;52.754;13.040;2023-03-13T02:47:44;99865.75;;;6.68;100.00
20696;BME280;10507;52.754;13.040;2023-03-13T02:50:13;99880.66;;;6.70;100.00
20696;BME280;10507;52.754;13.040;2023-03-13T02:52:43;99885.19;;;6.68;100.00
20696;BME280;10507;52.754;13.040;2023-03-13T02:55:14;99875.53;;;6.67;100.00
20696;BME280;10507;52.754;13.040;2023-03-13T02:57:45;99907.94;;;6.74;100.00
20696;BME280;10507;52.754;13.040;2023-03-13T03:00:14;99896.47;;;6.73;100.00
20696;BME280;10507;52.754;13.040;2023-03-13T03:02:43;99883.31;;;6.70;100.00
20696;BME280;10507;52.754;13.040;2023-03-13T03:05:12;99867.94;;;6.59;100.00
20696;BME280;10507;52.754;13.040;2023-03-13T03:07:40;99903.97;;;6.63;100.00
20696;BME280;10507;52.754;13.040;2023-03-13T03:10:09;99911.16;;;6.61;100.00
20696;BME280;10507;52.754;13.040;2023-03-13T03:12:37;99916.72;;;6.55;100.00
20696;BME280;10507;52.754;13.040;2023-03-13T03:15:07;99931.84;;;6.53;100.00
20696;BME280;10507;52.754;13.040;2023-03-13T03:17:35;99930.25;;;6.49;100.00
20696;BME280;10507;52.754;13.040;2023-03-13T03:20:05;99946.16;;;6.49;100.00
20696;BME280;10507;52.754;13.040;2023-03-13T03:22:37;99948.81;;;6.49;100.00
20696;BME280;10507;52.754;13.040;2023-03-13T03:25:07;99963.78;;;6.50;100.00
20696;BME280;10507;52.754;13.040;2023-03-13T03:27:35;99962.09;;;6.49;100.00
20696;BME280;10507;52.754;13.040;2023-03-13T03:30:04;99969.09;;;6.50;100.00
20696;BME280;10507;52.754;13.040;2023-03-13T03:32:34;99981.44;;;6.51;100.00
20696;BME280;10507;52.754;13.040;2023-03-13T03:35:02;99985.81;;;6.52;100.00
20696;BME280;10507;52.754;13.040;2023-03-13T03:37:30;99994.56;;;6.54;100.00
20696;BME280;10507;52.754;13.040;2023-03-13T03:39:58;99993.66;;;6.55;100.00
20696;BME280;10507;52.754;13.040;2023-03-13T03:42:26;100014.66;;;6.60;100.00
20696;BME280;10507;52.754;13.040;2023-03-13T03:44:54;99998.69;;;6.61;100.00
20696;BME280;10507;52.754;13.040;2023-03-13T03:47:22;100015.44;;;6.62;100.00
20696;BME280;10507;52.754;13.040;2023-03-13T03:49:51;100015.44;;;6.62;100.00
20696;BME280;10507;52.754;13.040;2023-03-13T03:52:19;100026.91;;;6.62;100.00
20696;BME280;10507;52.754;13.040;2023-03-13T03:54:47;100025.06;;;6.64;100.00
20696;BME280;10507;52.754;13.040;2023-03-13T03:57:15;100031.16;;;6.66;100.00
20696;BME280;10507;52.754;13.040;2023-03-13T03:59:43;100039.84;;;6.70;100.00
20696;BME280;10507;52.754;13.040;2023-03-13T04:02:10;100030.03;;;6.72;100.00
20696;BME280;10507;52.754;13.040;2023-03-13T04:04:38;100029.97;;;6.74;100.00
20696;BME280;10507;52.754;13.040;2023-03-13T04:07:08;100030.59;;;6.79;100.00
20696;BME280;10507;52.754;13.040;2023-03-13T04:09:35;100034.00;;;6.82;100.00
20696;BME280;10507;52.754;13.040;2023-03-13T04:12:04;100028.53;;;6.85;100.00
20696;BME280;10507;52.754;13.040;2023-03-13T04:14:32;100012.56;;;6.87;100.00
20696;BME280;10507;52.754;13.040;2023-03-13T04:17:00;100015.16;;;6.89;100.00
20696;BME280;10507;52.754;13.040;2023-03-13T04:19:28;100013.22;;;6.92;100.00
20696;BME280;10507;52.754;13.040;2023-03-13T04:21:56;100017.50;;;6.95;100.00
20696;BME280;10507;52.754;13.040;2023-03-13T04:24:25;100008.63;;;6.96;100.00
20696;BME280;10507;52.754;13.040;2023-03-13T04:26:53;100002.47;;;6.95;100.00
20696;BME280;10507;52.754;13.040;2023-03-13T04:29:21;100008.56;;;6.97;100.00
20696;BME280;10507;52.754;13.040;2023-03-13T04:31:49;99997.06;;;6.97;100.00
20696;BME280;10507;52.754;13.040;2023-03-13T04:34:16;100002.31;;;6.98;100.00
20696;BME280;10507;52.754;13.040;2023-03-13T04:36:44;99997.88;;;6.99;100.00
20696;BME280;10507;52.754;13.040;2023-03-13T04:39:12;99994.31;;;7.00;100.00
20696;BME280;10507;52.754;13.040;2023-03-13T04:41:41;100012.72;;;7.03;100.00
20696;BME280;10507;52.754;13.040;2023-03-13T04:44:09;99992.50;;;7.00;100.00
20696;BME280;10507;52.754;13.040;2023-03-13T04:46:37;99993.34;;;7.01;100.00
20696;BME280;10507;52.754;13.040;2023-03-13T04:49:08;99986.25;;;7.01;100.00
20696;BME280;10507;52.754;13.040;2023-03-13T04:51:36;99988.84;;;7.03;100.00
20696;BME280;10507;52.754;13.040;2023-03-13T04:54:04;99987.84;;;7.05;100.00
20696;BME280;10507;52.754;13.040;2023-03-13T04:56:32;99976.53;;;7.02;100.00
20696;BME280;10507;52.754;13.040;2023-03-13T04:59:12;99967.56;;;7.04;100.00
20696;BME280;10507;52.754;13.040;2023-03-13T05:01:55;99970.06;;;7.07;100.00
20696;BME280;10507;52.754;13.040;2023-03-13T05:04:22;99969.97;;;7.09;100.00
20696;BME280;10507;52.754;13.040;2023-03-13T05:06:52;99949.66;;;7.08;100.00
20696;BME280;10507;52.754;13.040;2023-03-13T05:09:19;99944.28;;;7.10;100.00
20696;BME280;10507;52.754;13.040;2023-03-13T05:11:47;99955.69;;;7.12;100.00
20696;BME280;10507;52.754;13.040;2023-03-13T05:14:17;99960.72;;;7.18;100.00
20696;BME280;10507;52.754;13.040;2023-03-13T05:16:45;99946.72;;;7.14;100.00
20696;BME280;10507;52.754;13.040;2023-03-13T05:19:13;99938.81;;;7.13;100.00
20696;BME280;10507;52.754;13.040;2023-03-13T05:21:41;99945.72;;;7.17;100.00
20696;BME280;10507;52.754;13.040;2023-03-13T05:24:09;99940.50;;;7.15;100.00
20696;BME280;10507;52.754;13.040;2023-03-13T05:26:37;99949.31;;;7.16;100.00
20696;BME280;10507;52.754;13.040;2023-03-13T05:29:05;99970.34;;;7.20;100.00
20696;BME280;10507;52.754;13.040;2023-03-13T05:31:34;99960.78;;;7.16;100.00
20696;BME280;10507;52.754;13.040;2023-03-13T05:34:02;99969.72;;;7.15;100.00
20696;BME280;10507;52.754;13.040;2023-03-13T05:36:30;99969.78;;;7.14;100.00
20696;BME280;10507;52.754;13.040;2023-03-13T05:38:58;99991.66;;;7.19;100.00
20696;BME280;10507;52.754;13.040;2023-03-13T05:41:26;99986.41;;;7.17;100.00
20696;BME280;10507;52.754;13.040;2023-03-13T05:43:53;100000.41;;;7.21;100.00
20696;BME280;10507;52.754;13.040;2023-03-13T05:46:21;99989.78;;;7.21;100.00
20696;BME280;10507;52.754;13.040;2023-03-13T05:48:51;99973.22;;;7.16;100.00
20696;BME280;10507;52.754;13.040;2023-03-13T05:51:19;99995.25;;;7.18;100.00
20696;BME280;10507;52.754;13.040;2023-03-13T05:53:47;99983.97;;;7.13;100.00
20696;BME280;10507;52.754;13.040;2023-03-13T05:56:15;100004.91;;;7.19;100.00
20696;BME280;10507;52.754;13.040;2023-03-13T05:58:47;100006.78;;;7.17;100.00
20696;BME280;10507;52.754;13.040;2023-03-13T06:01:15;100010.22;;;7.19;100.00
20696;BME280;10507;52.754;13.040;2023-03-13T06:03:43;100018.97;;;7.21;100.00
20696;BME280;10507;52.754;13.040;2023-03-13T06:06:13;100012.03;;;7.18;100.00
20696;BME280;10507;52.754;13.040;2023-03-13T06:08:41;100018.97;;;7.21;100.00
20696;BME280;10507;52.754;13.040;2023-03-13T06:11:09;100021.41;;;7.25;100.00
20696;BME280;10507;52.754;13.040;2023-03-13T06:13:37;100017.69;;;7.29;100.00
20696;BME280;10507;52.754;13.040;2023-03-13T06:16:07;99994.88;;;7.25;100.00
20696;BME280;10507;52.754;13.040;2023-03-13T06:18:36;100002.78;;;7.27;100.00
20696;BME280;10507;52.754;13.040;2023-03-13T06:21:04;99990.41;;;7.26;100.00
20696;BME280;10507;52.754;13.040;2023-03-13T06:23:34;99999.19;;;7.28;100.00
20696;BME280;10507;52.754;13.040;2023-03-13T06:26:04;100007.03;;;7.31;100.00
20696;BME280;10507;52.754;13.040;2023-03-13T06:28:33;100011.22;;;7.35;100.00
20696;BME280;10507;52.754;13.040;2023-03-13T06:31:02;99988.34;;;7.33;100.00
20696;BME280;10507;52.754;13.040;2023-03-13T06:33:30;99988.00;;;7.40;100.00
20696;BME280;10507;52.754;13.040;2023-03-13T06:35:59;99979.06;;;7.41;100.00
20696;BME280;10507;52.754;13.040;2023-03-13T06:38:28;99975.63;;;7.39;100.00
20696;BME280;10507;52.754;13.040;2023-03-13T06:40:59;99986.81;;;7.46;100.00
20696;BME280;10507;52.754;13.040;2023-03-13T06:43:27;99973.63;;;7.44;100.00
20696;BME280;10507;52.754;13.040;2023-03-13T06:45:55;99961.13;;;7.46;100.00
20696;BME280;10507;52.754;13.040;2023-03-13T06:48:23;99954.72;;;7.50;100.00
20696;BME280;10507;52.754;13.040;2023-03-13T06:50:51;99943.19;;;7.52;100.00
20696;BME280;10507;52.754;13.040;2023-03-13T06:53:22;99949.06;;;7.58;100.00
20696;BME280;10507;52.754;13.040;2023-03-13T06:55:50;99930.38;;;7.60;100.00
20696;BME280;10507;52.754;13.040;2023-03-13T06:58:19;99925.94;;;7.60;100.00
20696;BME280;10507;52.754;13.040;2023-03-13T07:01:04;99924.25;;;7.58;100.00
20696;BME280;10507;52.754;13.040;2023-03-13T07:03:33;99936.56;;;7.60;100.00
20696;BME280;10507;52.754;13.040;2023-03-13T07:06:01;99937.25;;;7.64;100.00
20696;BME280;10507;52.754;13.040;2023-03-13T07:08:29;99926.72;;;7.62;100.00
20696;BME280;10507;52.754;13.040;2023-03-13T07:10:59;99924.19;;;7.59;100.00
20696;BME280;10507;52.754;13.040;2023-03-13T07:13:28;99929.50;;;7.59;100.00
20696;BME280;10507;52.754;13.040;2023-03-13T07:15:58;99947.88;;;7.64;100.00
20696;BME280;10507;52.754;13.040;2023-03-13T07:18:26;99951.47;;;7.63;100.00
20696;BME280;10507;52.754;13.040;2023-03-13T07:20:55;99955.84;;;7.64;100.00
20696;BME280;10507;52.754;13.040;2023-03-13T07:23:25;99972.44;;;7.69;100.00
20696;BME280;10507;52.754;13.040;2023-03-13T07:25:53;99942.28;;;7.70;100.00
20696;BME280;10507;52.754;13.040;2023-03-13T07:28:21;99963.84;;;7.81;100.00
20696;BME280;10507;52.754;13.040;2023-03-13T07:30:51;99953.72;;;7.89;100.00
20696;BME280;10507;52.754;13.040;2023-03-13T07:33:19;99938.38;;;7.95;100.00
20696;BME280;10507;52.754;13.040;2023-03-13T07:35:47;99929.31;;;7.99;100.00
20696;BME280;10507;52.754;13.040;2023-03-13T07:38:15;99897.50;;;7.97;100.00
20696;BME280;10507;52.754;13.040;2023-03-13T07:40:48;99903.34;;;8.04;100.00
20696;BME280;10507;52.754;13.040;2023-03-13T07:43:16;99888.34;;;8.03;100.00
20696;BME280;10507;52.754;13.040;2023-03-13T07:45:55;99885.34;;;8.09;100.00
20696;BME280;10507;52.754;13.040;2023-03-13T07:48:28;99877.38;;;8.09;100.00
20696;BME280;10507;52.754;13.040;2023-03-13T07:50:59;99860.50;;;8.10;100.00
20696;BME280;10507;52.754;13.040;2023-03-13T07:53:27;99892.09;;;8.16;100.00
20696;BME280;10507;52.754;13.040;2023-03-13T07:55:57;99890.06;;;8.21;100.00
20696;BME280;10507;52.754;13.040;2023-03-13T07:58:26;99847.81;;;8.15;100.00
20696;BME280;10507;52.754;13.040;2023-03-13T08:00:56;99860.88;;;8.20;100.00
20696;BME280;10507;52.754;13.040;2023-03-13T08:03:24;99862.59;;;8.21;100.00
20696;BME280;10507;52.754;13.040;2023-03-13T08:05:59;99855.00;;;8.13;100.00
20696;BME280;10507;52.754;13.040;2023-03-13T08:08:28;99869.94;;;8.16;100.00
20696;BME280;10507;52.754;13.040;2023-03-13T08:11:00;99898.94;;;8.20;100.00
20696;BME280;10507;52.754;13.040;2023-03-13T08:13:28;99906.00;;;8.21;100.00
20696;BME280;10507;52.754;13.040;2023-03-13T08:16:08;99928.75;;;8.27;100.00
20696;BME280;10507;52.754;13.040;2023-03-13T08:18:39;99928.66;;;8.28;100.00
20696;BME280;10507;52.754;13.040;2023-03-13T08:21:09;99935.78;;;8.28;100.00
20696;BME280;10507;52.754;13.040;2023-03-13T08:23:37;99932.28;;;8.27;100.00
20696;BME280;10507;52.754;13.040;2023-03-13T08:26:06;99946.34;;;8.29;100.00
20696;BME280;10507;52.754;13.040;2023-03-13T08:28:35;99941.00;;;8.29;100.00
20696;BME280;10507;52.754;13.040;2023-03-13T08:31:08;99933.91;;;8.30;100.00
20696;BME280;10507;52.754;13.040;2023-03-13T08:33:36;99954.16;;;8.32;100.00
20696;BME280;10507;52.754;13.040;2023-03-13T08:36:10;99954.78;;;8.38;100.00
20696;BME280;10507;52.754;13.040;2023-03-13T08:38:38;99951.97;;;8.41;100.00
20696;BME280;10507;52.754;13.040;2023-03-13T08:41:09;99953.66;;;8.43;100.00
20696;BME280;10507;52.754;13.040;2023-03-13T08:43:37;99944.72;;;8.44;100.00
20696;BME280;10507;52.754;13.040;2023-03-13T08:46:05;99938.38;;;8.47;100.00
20696;BME280;10507;52.754;13.040;2023-03-13T08:48:34;99955.56;;;8.57;100.00
20696;BME280;10507;52.754;13.040;2023-03-13T08:51:03;99943.06;;;8.59;100.00
20696;BME280;10507;52.754;13.040;2023-03-13T08:53:33;99929.75;;;8.59;100.00
20696;BME280;10507;52.754;13.040;2023-03-13T08:56:01;99930.19;;;8.67;100.00
20696;BME280;10507;52.754;13.040;2023-03-13T08:58:30;99914.91;;;8.71;100.00
20696;BME280;10507;52.754;13.040;2023-03-13T09:01:00;99910.97;;;8.78;100.00
20696;BME280;10507;52.754;13.040;2023-03-13T09:03:30;99899.16;;;8.84;100.00
20696;BME280;10507;52.754;13.040;2023-03-13T09:06:00;99880.94;;;8.92;100.00
20696;BME280;10507;52.754;13.040;2023-03-13T09:08:31;99843.25;;;9.00;100.00
20696;BME280;10507;52.754;13.040;2023-03-13T09:11:00;99803.38;;;8.98;100.00
20696;BME280;10507;52.754;13.040;2023-03-13T09:13:29;99777.47;;;9.02;100.00
20696;BME280;10507;52.754;13.040;2023-03-13T09:15:59;99763.03;;;9.06;100.00
20696;BME280;10507;52.754;13.040;2023-03-13T09:18:28;99740.75;;;9.07;100.00
20696;BME280;10507;52.754;13.040;2023-03-13T09:20:56;99727.38;;;9.08;100.00
20696;BME280;10507;52.754;13.040;2023-03-13T09:23:25;99731.31;;;9.17;100.00
20696;BME280;10507;52.754;13.040;2023-03-13T09:25:54;99700.19;;;9.18;100.00
20696;BME280;10507;52.754;13.040;2023-03-13T09:28:23;99693.81;;;9.20;100.00
20696;BME280;10507;52.754;13.040;2023-03-13T09:30:52;99671.75;;;9.18;100.00
20696;BME280;10507;52.754;13.040;2023-03-13T09:33:20;99661.09;;;9.18;100.00
20696;BME280;10507;52.754;13.040;2023-03-13T09:35:49;99629.22;;;9.16;100.00
20696;BME280;10507;52.754;13.040;2023-03-13T09:38:17;99638.09;;;9.17;100.00
20696;BME280;10507;52.754;13.040;2023-03-13T09:40:49;99636.28;;;9.18;100.00
20696;BME280;10507;52.754;13.040;2023-03-13T09:43:39;99646.56;;;9.24;100.00
20696;BME280;10507;52.754;13.040;2023-03-13T09:46:21;99638.38;;;9.27;100.00
20696;BME280;10507;52.754;13.040;2023-03-13T09:48:54;99654.94;;;9.32;100.00
20696;BME280;10507;52.754;13.040;2023-03-13T09:51:25;99651.13;;;9.36;100.00
20696;BME280;10507;52.754;13.040;2023-03-13T09:53:58;99650.78;;;9.42;100.00
20696;BME280;10507;52.754;13.040;2023-03-13T09:56:33;99689.97;;;9.54;100.00
20696;BME280;10507;52.754;13.040;2023-03-13T09:59:10;99672.63;;;9.62;100.00
20696;BME280;10507;52.754;13.040;2023-03-13T10:01:41;99683.59;;;9.71;100.00
20696;BME280;10507;52.754;13.040;2023-03-13T10:04:26;99651.34;;;9.76;100.00
20696;BME280;10507;52.754;13.040;2023-03-13T10:06:55;99639.25;;;9.85;100.00
20696;BME280;10507;52.754;13.040;2023-03-13T10:09:28;99626.56;;;9.88;100.00
20696;BME280;10507;52.754;13.040;2023-03-13T10:12:04;99617.22;;;9.95;100.00
20696;BME280;10507;52.754;13.040;2023-03-13T10:14:40;99629.97;;;10.05;100.00
20696;BME280;10507;52.754;13.040;2023-03-13T10:17:16;99626.19;;;10.22;100.00
20696;BME280;10507;52.754;13.040;2023-03-13T10:19:54;99623.09;;;10.42;100.00
20696;BME280;10507;52.754;13.040;2023-03-13T10:22:26;99602.34;;;10.60;100.00
20696;BME280;10507;52.754;13.040;2023-03-13T10:24:57;99557.84;;;10.73;100.00
20696;BME280;10507;52.754;13.040;2023-03-13T10:27:27;99558.09;;;10.96;100.00
20696;BME280;10507;52.754;13.040;2023-03-13T10:29:55;99513.53;;;11.09;100.00
20696;BME280;10507;52.754;13.040;2023-03-13T10:32:23;99497.06;;;11.15;100.00
20696;BME280;10507;52.754;13.040;2023-03-13T10:34:52;99476.44;;;11.30;100.00
20696;BME280;10507;52.754;13.040;2023-03-13T10:37:25;99482.72;;;11.42;100.00
20696;BME280;10507;52.754;13.040;2023-03-13T10:39:53;99477.94;;;11.58;100.00
20696;BME280;10507;52.754;13.040;2023-03-13T10:42:27;99462.72;;;11.72;100.00
20696;BME280;10507;52.754;13.040;2023-03-13T10:44:59;99435.91;;;11.84;100.00
20696;BME280;10507;52.754;13.040;2023-03-13T10:47:31;99444.91;;;12.07;100.00
20696;BME280;10507;52.754;13.040;2023-03-13T10:50:01;99428.28;;;12.15;100.00
20696;BME280;10507;52.754;13.040;2023-03-13T10:52:41;99454.63;;;12.44;100.00
20696;BME280;10507;52.754;13.040;2023-03-13T10:55:10;99431.31;;;12.68;100.00
20696;BME280;10507;52.754;13.040;2023-03-13T10:57:40;99363.75;;;12.76;100.00
20696;BME280;10507;52.754;13.040;2023-03-13T11:00:32;99353.53;;;12.81;100.00
20696;BME280;10507;52.754;13.040;2023-03-13T11:03:03;99376.13;;;13.00;100.00
20696;BME280;10507;52.754;13.040;2023-03-13T11:05:37;99309.31;;;12.98;100.00
20696;BME280;10507;52.754;13.040;2023-03-13T11:08:20;99300.63;;;13.06;100.00
20696;BME280;10507;52.754;13.040;2023-03-13T11:10:56;99201.53;;;12.95;100.00
20696;BME280;10507;52.754;13.040;2023-03-13T11:13:33;99259.28;;;12.87;100.00
20696;BME280;10507;52.754;13.040;2023-03-13T11:16:17;99233.56;;;12.96;100.00
20696;BME280;10507;52.754;13.040;2023-03-13T11:19:00;99198.38;;;12.89;100.00
20696;BME280;10507;52.754;13.040;2023-03-13T11:21:40;99272.59;;;13.10;100.00
20696;BME280;10507;52.754;13.040;2023-03-13T11:24:17;99292.44;;;13.30;100.00
20696;BME280;10507;52.754;13.040;2023-03-13T11:26:52;99261.66;;;13.45;100.00
20696;BME280;10507;52.754;13.040;2023-03-13T11:29:38;99202.53;;;13.47;100.00
20696;BME280;10507;52.754;13.040;2023-03-13T11:32:19;99125.84;;;13.35;100.00
20696;BME280;10507;52.754;13.040;2023-03-13T11:34:53;99112.13;;;13.28;100.00
20696;BME280;10507;52.754;13.040;2023-03-13T11:37:23;99142.31;;;13.30;100.00
20696;BME280;10507;52.754;13.040;2023-03-13T11:40:02;99090.31;;;13.21;100.00
20696;BME280;10507;52.754;13.040;2023-03-13T11:42:45;99099.59;;;13.17;100.00
20696;BME280;10507;52.754;13.040;2023-03-13T11:45:30;99126.13;;;13.20;100.00
20696;BME280;10507;52.754;13.040;2023-03-13T11:48:08;99149.50;;;13.29;100.00
20696;BME280;10507;52.754;13.040;2023-03-13T11:50:46;99132.16;;;13.34;100.00
20696;BME280;10507;52.754;13.040;2023-03-13T11:53:26;99113.31;;;13.45;100.00
20696;BME280;10507;52.754;13.040;2023-03-13T11:56:05;99091.16;;;13.43;100.00
20696;BME280;10507;52.754;13.040;2023-03-13T11:58:55;99079.78;;;13.50;100.00
20696;BME280;10507;52.754;13.040;2023-03-13T12:01:31;99068.22;;;13.50;100.00
20696;BME280;10507;52.754;13.040;2023-03-13T12:04:04;99048.00;;;13.46;100.00
20696;BME280;10507;52.754;13.040;2023-03-13T12:06:39;99067.94;;;13.53;100.00
20696;BME280;10507;52.754;13.040;2023-03-13T12:09:12;99052.69;;;13.54;100.00
20696;BME280;10507;52.754;13.040;2023-03-13T12:11:48;99048.06;;;13.65;100.00
20696;BME280;10507;52.754;13.040;2023-03-13T12:14:21;99045.31;;;13.77;100.00
20696;BME280;10507;52.754;13.040;2023-03-13T12:16:56;99013.78;;;13.79;100.00
20696;BME280;10507;52.754;13.040;2023-03-13T12:19:29;99034.72;;;13.85;100.00
20696;BME280;10507;52.754;13.040;2023-03-13T12:22:06;99033.47;;;13.89;100.00
20696;BME280;10507;52.754;13.040;2023-03-13T12:24:38;98996.63;;;13.91;100.00
20696;BME280;10507;52.754;13.040;2023-03-13T12:27:12;99014.44;;;14.02;100.00
20696;BME280;10507;52.754;13.040;2023-03-13T12:29:46;98986.16;;;14.07;100.00
20696;BME280;10507;52.754;13.040;2023-03-13T12:32:23;99029.72;;;14.30;99.69
20696;BME280;10507;52.754;13.040;2023-03-13T12:34:58;98990.16;;;14.42;98.91
20696;BME280;10507;52.754;13.040;2023-03-13T12:37:33;98982.19;;;14.50;98.55
20696;BME280;10507;52.754;13.040;2023-03-13T12:40:12;98984.19;;;14.68;98.35
20696;BME280;10507;52.754;13.040;2023-03-13T12:42:48;98933.06;;;14.60;97.94
20696;BME280;10507;52.754;13.040;2023-03-13T12:45:19;98937.41;;;14.61;98.34
20696;BME280;10507;52.754;13.040;2023-03-13T12:48:19;98883.53;;;14.52;98.17
20696;BME280;10507;52.754;13.040;2023-03-13T12:51:02;98878.06;;;14.44;98.61
20696;BME280;10507;52.754;13.040;2023-03-13T12:56:53;98843.03;;;14.36;98.97
20696;BME280;10507;52.754;13.040;2023-03-13T12:59:29;98851.22;;;14.34;98.86
20696;BME280;10507;52.754;13.040;2023-03-13T13:01:59;98901.22;;;14.45;99.64
20696;BME280;10507;52.754;13.040;2023-03-13T13:04:32;98893.31;;;14.53;99.12
20696;BME280;10507;52.754;13.040;2023-03-13T13:07:20;98919.72;;;14.68;99.45